createdAt,value
2023-03-06T00:01:20.684Z,18.80
2023-03-06T00:04:36.377Z,16.50
2023-03-06T00:07:18.641Z,14.00
2023-03-06T00:10:13.983Z,16.10
2023-03-06T00:13:20.282Z,14.80
2023-03-06T00:16:19.439Z,14.10
2023-03-06T00:18:59.544Z,12.80
2023-03-06T00:21:58.548Z,12.00
2023-03-06T00:25:14.027Z,13.00
2023-03-06T00:28:15.668Z,13.60
2023-03-06T00:30:52.494Z,12.60
2023-03-06T00:34:05.191Z,14.30
2023-03-06T00:36:58.394Z,12.90
2023-03-06T00:39:51.906Z,14.50
2023-03-06T00:42:34.627Z,13.70
2023-03-06T00:46:08.888Z,12.40
2023-03-06T00:49:35.925Z,13.20
2023-03-06T00:53:23.388Z,13.20
2023-03-06T00:56:41.982Z,10.90
2023-03-06T00:59:47.288Z,10.80
2023-03-06T01:02:44.888Z,10.80
2023-03-06T01:05:34.234Z,9.10
2023-03-06T01:08:59.806Z,10.90
2023-03-06T01:11:53.001Z,13.30
2023-03-06T01:14:38.984Z,9.90
2023-03-06T01:21:25.197Z,11.70
2023-03-06T01:24:48.904Z,12.20
2023-03-06T01:28:00.096Z,9.40
2023-03-06T01:30:46.951Z,9.70
2023-03-06T01:33:38.778Z,10.50
2023-03-06T01:40:31.876Z,10.50
2023-03-06T01:43:38.003Z,9.20
2023-03-06T01:47:19.477Z,8.30
2023-03-06T01:50:20.733Z,8.50
2023-03-06T01:53:17.040Z,10.30
2023-03-06T01:57:11.496Z,11.70
2023-03-06T01:59:30.692Z,10.20
2023-03-06T02:02:28.320Z,10.70
2023-03-06T02:06:01.858Z,13.30
2023-03-06T02:12:50.867Z,17.70
2023-03-06T02:16:00.438Z,12.40
2023-03-06T02:18:58.037Z,15.00
2023-03-06T02:22:02.473Z,14.00
2023-03-06T02:25:22.265Z,14.60
2023-03-06T02:28:44.043Z,13.00
2023-03-06T02:31:49.235Z,13.40
2023-03-06T02:35:09.768Z,12.60
2023-03-06T02:38:06.954Z,13.80
2023-03-06T02:41:32.116Z,12.70
2023-03-06T02:44:33.852Z,12.40
2023-03-06T02:47:17.191Z,13.10
2023-03-06T02:50:40.940Z,13.50
2023-03-06T02:53:46.522Z,14.00
2023-03-06T02:56:54.800Z,13.50
2023-03-06T03:03:47.397Z,14.00
2023-03-06T03:06:45.583Z,12.80
2023-03-06T03:09:40.433Z,12.20
2023-03-06T03:16:22.413Z,12.10
2023-03-06T03:19:31.295Z,11.20
2023-03-06T03:22:44.178Z,13.80
2023-03-06T03:26:40.703Z,12.80
2023-03-06T03:29:35.957Z,13.10
2023-03-06T03:32:35.769Z,12.40
2023-03-06T03:36:23.897Z,11.10
2023-03-06T03:45:48.395Z,15.00
2023-03-06T03:49:35.418Z,14.40
2023-03-06T03:52:51.591Z,13.60
2023-03-06T03:56:15.444Z,16.60
2023-03-06T03:59:13.579Z,16.10
2023-03-06T04:06:29.900Z,16.90
2023-03-06T04:09:28.008Z,17.50
2023-03-06T04:12:57.888Z,17.30
2023-03-06T04:15:43.097Z,16.60
2023-03-06T04:22:42.662Z,15.00
2023-03-06T04:26:23.151Z,17.10
2023-03-06T04:30:14.842Z,15.40
2023-03-06T04:33:25.063Z,28.70
2023-03-06T04:36:51.848Z,18.50
2023-03-06T04:42:41.214Z,18.00
2023-03-06T04:45:18.610Z,19.80
2023-03-06T04:48:13.324Z,20.10
2023-03-06T04:51:36.761Z,25.80
2023-03-06T04:54:35.938Z,25.00
2023-03-06T05:02:25.801Z,18.60
2023-03-06T05:05:35.977Z,20.00
2023-03-06T05:08:44.455Z,19.50
2023-03-06T05:11:36.280Z,19.90
2023-03-06T05:18:34.191Z,24.70
2023-03-06T05:21:14.274Z,21.50
2023-03-06T05:27:19.216Z,19.40
2023-03-06T05:33:31.815Z,17.60
2023-03-06T05:36:36.643Z,18.80
2023-03-06T05:39:15.589Z,19.70
2023-03-06T05:42:31.132Z,18.60
2023-03-06T05:45:32.691Z,17.20
2023-03-06T05:48:40.157Z,20.10
2023-03-06T05:51:32.151Z,18.00
2023-03-06T05:54:04.299Z,18.20
2023-03-06T05:57:08.092Z,19.40
2023-03-06T06:00:23.917Z,21.90
2023-03-06T06:03:49.013Z,19.90
2023-03-06T06:07:19.238Z,18.00
2023-03-06T06:09:47.062Z,17.30
2023-03-06T06:12:32.022Z,19.70
2023-03-06T06:15:15.303Z,19.00
2023-03-06T06:17:56.600Z,19.10
2023-03-06T06:20:42.626Z,20.30
2023-03-06T06:23:26.173Z,18.40
2023-03-06T06:26:22.423Z,17.50
2023-03-06T06:29:00.104Z,19.20
2023-03-06T06:31:51.231Z,16.50
2023-03-06T06:34:29.122Z,18.50
2023-03-06T06:37:12.922Z,18.50
2023-03-06T06:41:04.695Z,20.50
2023-03-06T06:47:26.097Z,16.90
2023-03-06T06:49:56.495Z,17.50
2023-03-06T06:52:25.056Z,18.00
2023-03-06T06:55:17.379Z,17.00
2023-03-06T06:57:59.136Z,23.30
2023-03-06T07:00:34.836Z,91.00
2023-03-06T07:03:41.793Z,32.70
2023-03-06T07:06:18.687Z,130.70
2023-03-06T07:08:46.761Z,39.60
2023-03-06T07:11:19.254Z,39.10
2023-03-06T07:13:47.703Z,23.20
2023-03-06T07:16:19.054Z,22.90
2023-03-06T07:18:49.002Z,21.20
2023-03-06T07:21:20.246Z,20.70
2023-03-06T07:23:56.766Z,19.10
2023-03-06T07:26:34.840Z,22.90
2023-03-06T07:29:09.213Z,19.80
2023-03-06T07:31:55.050Z,20.20
2023-03-06T07:34:31.716Z,18.20
2023-03-06T07:37:18.341Z,19.30
2023-03-06T07:40:04.746Z,20.50
2023-03-06T07:42:38.863Z,24.20
2023-03-06T07:45:19.229Z,25.40
2023-03-06T07:47:53.668Z,22.60
2023-03-06T07:55:38.567Z,21.50
2023-03-06T07:58:45.935Z,20.10
2023-03-06T08:01:23.775Z,23.60
2023-03-06T08:03:58.410Z,20.90
2023-03-06T08:06:39.775Z,22.00
2023-03-06T08:09:20.198Z,22.00
2023-03-06T08:11:57.976Z,19.90
2023-03-06T08:14:51.141Z,19.30
2023-03-06T08:17:38.705Z,18.70
2023-03-06T08:20:24.296Z,22.40
2023-03-06T08:22:52.423Z,20.30
2023-03-06T08:25:37.039Z,21.20
2023-03-06T08:28:15.897Z,18.20
2023-03-06T08:30:55.412Z,20.50
2023-03-06T08:33:41.246Z,20.40
2023-03-06T08:36:18.347Z,18.40
2023-03-06T08:39:06.760Z,20.20
2023-03-06T08:42:03.222Z,21.00
2023-03-06T08:44:41.391Z,19.30
2023-03-06T08:47:14.656Z,22.90
2023-03-06T08:50:07.863Z,20.80
2023-03-06T08:52:57.966Z,22.40
2023-03-06T08:58:34.456Z,22.90
2023-03-06T09:01:25.174Z,24.80
2023-03-06T09:04:18.383Z,21.40
2023-03-06T09:07:46.942Z,22.40
2023-03-06T09:10:22.669Z,24.00
2023-03-06T09:13:07.550Z,22.70
2023-03-06T09:16:23.593Z,23.30
2023-03-06T09:18:59.943Z,22.10
2023-03-06T09:21:40.958Z,23.90
2023-03-06T09:24:17.256Z,24.60
2023-03-06T09:26:52.157Z,31.90
2023-03-06T09:29:26.276Z,22.30
2023-03-06T09:32:12.119Z,23.60
2023-03-06T09:35:04.087Z,24.20
2023-03-06T09:37:51.753Z,24.00
2023-03-06T09:40:39.608Z,23.50
2023-03-06T09:43:23.619Z,22.60
2023-03-06T09:46:29.263Z,22.00
2023-03-06T09:49:56.598Z,24.00
2023-03-06T09:53:09.239Z,22.50
2023-03-06T09:55:46.059Z,20.10
2023-03-06T09:58:27.300Z,23.10
2023-03-06T10:01:22.208Z,23.20
2023-03-06T10:04:07.113Z,27.10
2023-03-06T10:06:54.719Z,22.80
2023-03-06T10:10:09.900Z,24.60
2023-03-06T10:13:06.808Z,24.00
2023-03-06T10:15:46.488Z,24.80
2023-03-06T10:18:24.523Z,22.30
2023-03-06T10:21:18.627Z,24.70
2023-03-06T10:24:05.505Z,29.20
2023-03-06T10:27:13.951Z,23.00
2023-03-06T10:30:03.994Z,24.90
2023-03-06T10:33:07.623Z,22.10
2023-03-06T10:36:48.057Z,21.50
2023-03-06T10:39:36.947Z,21.90
2023-03-06T10:42:21.536Z,23.30
2023-03-06T10:45:23.994Z,23.20
2023-03-06T10:48:54.209Z,21.20
2023-03-06T10:51:36.729Z,22.90
2023-03-06T10:54:17.793Z,21.10
2023-03-06T10:56:55.750Z,23.40
2023-03-06T10:59:57.395Z,21.80
2023-03-06T11:02:43.766Z,23.60
2023-03-06T11:05:25.003Z,24.20
2023-03-06T11:08:01.692Z,26.10
2023-03-06T11:10:36.991Z,26.20
2023-03-06T11:13:28.958Z,28.20
2023-03-06T11:16:19.770Z,28.70
2023-03-06T11:19:19.006Z,27.80
2023-03-06T11:22:27.877Z,29.70
2023-03-06T11:25:49.978Z,29.90
2023-03-06T11:29:16.063Z,24.70
2023-03-06T11:31:59.299Z,28.20
2023-03-06T11:34:50.954Z,27.20
2023-03-06T11:38:44.508Z,28.30
2023-03-06T11:42:05.295Z,25.10
2023-03-06T11:45:21.781Z,24.90
2023-03-06T11:48:17.884Z,22.60
2023-03-06T11:51:15.282Z,19.50
2023-03-06T11:54:35.087Z,21.20
2023-03-06T11:57:29.075Z,23.50
2023-03-06T12:00:31.014Z,23.40
2023-03-06T12:03:33.719Z,24.40
2023-03-06T12:06:13.596Z,23.10
2023-03-06T12:09:46.648Z,20.30
2023-03-06T12:12:44.664Z,19.00
2023-03-06T12:15:52.337Z,20.30
2023-03-06T12:18:56.478Z,19.20
2023-03-06T12:22:17.071Z,18.30
2023-03-06T12:25:26.016Z,18.30
2023-03-06T12:28:23.966Z,17.60
2023-03-06T12:31:30.291Z,16.40
2023-03-06T12:34:41.481Z,21.00
2023-03-06T12:37:33.204Z,21.60
2023-03-06T12:40:57.157Z,21.00
2023-03-06T12:44:03.849Z,16.00
2023-03-06T12:47:01.360Z,16.00
2023-03-06T12:49:38.323Z,18.70
2023-03-06T12:52:18.747Z,17.10
2023-03-06T12:55:01.389Z,17.40
2023-03-06T12:57:48.186Z,17.00
2023-03-06T13:01:50.883Z,16.40
2023-03-06T13:05:33.800Z,15.40
2023-03-06T13:08:36.936Z,16.30
2023-03-06T13:11:35.649Z,16.30
2023-03-06T13:17:47.154Z,15.20
2023-03-06T13:20:54.989Z,18.40
2023-03-06T13:23:53.366Z,16.90
2023-03-06T13:26:50.236Z,17.10
2023-03-06T13:29:38.051Z,18.00
2023-03-06T13:32:37.104Z,17.00
2023-03-06T13:35:47.353Z,18.00
2023-03-06T13:38:36.819Z,16.70
2023-03-06T13:42:01.800Z,16.30
2023-03-06T13:44:46.228Z,19.20
2023-03-06T13:50:48.877Z,15.50
2023-03-06T13:54:15.742Z,15.40
2023-03-06T13:56:59.398Z,13.80
2023-03-06T14:00:09.258Z,12.60
2023-03-06T14:03:11.039Z,10.90
2023-03-06T14:06:12.527Z,9.80
2023-03-06T14:09:40.989Z,8.60
2023-03-06T14:12:24.089Z,7.90
2023-03-06T14:15:26.368Z,10.50
2023-03-06T14:18:46.197Z,9.50
2023-03-06T14:21:55.984Z,9.90
2023-03-06T14:24:47.249Z,9.40
2023-03-06T14:27:44.591Z,10.10
2023-03-06T14:30:23.673Z,10.00
2023-03-06T14:35:59.868Z,10.40
2023-03-06T14:38:36.398Z,8.80
2023-03-06T14:45:22.149Z,8.70
2023-03-06T14:48:16.730Z,10.20
2023-03-06T14:50:57.256Z,10.20
2023-03-06T14:53:34.818Z,8.30
2023-03-06T14:56:28.852Z,11.00
2023-03-06T14:59:18.846Z,10.90
2023-03-06T15:02:42.566Z,10.00
2023-03-06T15:05:46.507Z,9.90
2023-03-06T15:08:30.599Z,13.20
2023-03-06T15:11:17.837Z,13.00
2023-03-06T15:14:23.791Z,12.10
2023-03-06T15:17:35.243Z,10.70
2023-03-06T15:20:07.674Z,11.50
2023-03-06T15:22:46.924Z,11.30
2023-03-06T15:25:40.097Z,12.60
2023-03-06T15:28:47.588Z,11.10
2023-03-06T15:33:10.532Z,13.80
2023-03-06T15:36:21.125Z,11.10
2023-03-06T15:39:09.610Z,13.00
2023-03-06T15:42:05.764Z,12.10
2023-03-06T15:45:42.893Z,13.70
2023-03-06T15:49:54.740Z,11.50
2023-03-06T15:52:42.208Z,12.30
2023-03-06T15:56:26.816Z,10.00
2023-03-06T15:59:11.512Z,11.00
2023-03-06T16:02:14.378Z,10.80
2023-03-06T16:05:18.095Z,10.70
2023-03-06T16:07:55.445Z,11.50
2023-03-06T16:10:51.308Z,434.00
2023-03-06T16:13:36.881Z,44.30
2023-03-06T16:19:28.188Z,16.50
2023-03-06T16:22:03.175Z,8.30
2023-03-06T16:24:34.264Z,9.00
2023-03-06T16:27:21.859Z,8.00
2023-03-06T16:29:59.076Z,7.50
2023-03-06T16:32:32.726Z,7.50
2023-03-06T16:35:09.048Z,10.10
2023-03-06T16:37:45.940Z,9.20
2023-03-06T16:40:44.280Z,8.00
2023-03-06T16:43:27.504Z,8.90
2023-03-06T16:45:56.266Z,10.10
2023-03-06T16:48:26.972Z,10.90
2023-03-06T16:51:11.590Z,10.40
2023-03-06T16:53:44.111Z,9.80
2023-03-06T16:56:20.813Z,25.70
2023-03-06T16:59:12.420Z,22.90
2023-03-06T17:01:51.152Z,47.10
2023-03-06T17:04:21.699Z,74.90
2023-03-06T17:06:54.858Z,94.30
2023-03-06T17:09:32.640Z,97.00
2023-03-06T17:12:00.023Z,67.20
2023-03-06T17:14:46.778Z,162.70
2023-03-06T17:17:18.734Z,135.00
2023-03-06T17:19:48.947Z,79.60
2023-03-06T17:22:18.153Z,279.00
2023-03-06T17:24:52.837Z,462.10
2023-03-06T17:27:24.912Z,199.40
2023-03-06T17:30:02.994Z,49.80
2023-03-06T17:33:09.942Z,29.90
2023-03-06T17:36:07.513Z,23.10
2023-03-06T17:40:12.654Z,21.10
2023-03-06T17:42:31.513Z,22.90
2023-03-06T17:45:12.061Z,22.20
2023-03-06T17:48:00.782Z,210.30
2023-03-06T17:50:33.822Z,99.80
2023-03-06T17:53:01.024Z,77.10
2023-03-06T17:55:29.848Z,47.40
2023-03-06T17:57:57.168Z,81.40
2023-03-06T18:00:27.047Z,45.40
2023-03-06T18:02:57.108Z,36.40
2023-03-06T18:05:25.736Z,24.80
2023-03-06T18:08:02.237Z,19.80
2023-03-06T18:10:32.883Z,20.60
2023-03-06T18:13:14.759Z,20.50
2023-03-06T18:15:42.866Z,36.50
2023-03-06T18:18:10.236Z,214.20
2023-03-06T18:20:49.745Z,274.30
2023-03-06T18:23:20.292Z,220.00
2023-03-06T18:25:47.546Z,82.70
2023-03-06T18:28:26.529Z,67.90
2023-03-06T18:31:08.269Z,67.70
2023-03-06T18:33:37.781Z,77.50
2023-03-06T18:36:06.966Z,44.70
2023-03-06T18:38:39.388Z,33.20
2023-03-06T18:41:08.074Z,33.00
2023-03-06T18:43:36.746Z,33.10
2023-03-06T18:48:38.936Z,34.10
2023-03-06T18:51:09.040Z,122.40
2023-03-06T18:53:40.100Z,247.00
2023-03-06T18:56:18.510Z,137.10
2023-03-06T18:58:52.419Z,55.80
2023-03-06T19:01:26.742Z,54.00
2023-03-06T19:03:54.106Z,45.80
2023-03-06T19:06:22.014Z,45.10
2023-03-06T19:08:53.352Z,42.80
2023-03-06T19:11:21.114Z,38.30
2023-03-06T19:13:52.575Z,35.50
2023-03-06T19:16:31.379Z,38.00
2023-03-06T19:19:02.575Z,51.60
2023-03-06T19:21:35.498Z,115.30
2023-03-06T19:26:34.513Z,129.80
2023-03-06T19:29:41.913Z,107.60
2023-03-06T19:32:15.603Z,170.10
2023-03-06T19:35:23.451Z,187.60
2023-03-06T19:38:18.900Z,172.60
2023-03-06T19:40:53.710Z,107.10
2023-03-06T19:43:57.195Z,117.00
2023-03-06T19:46:37.613Z,55.50
2023-03-06T19:49:47.758Z,63.60
2023-03-06T19:55:47.459Z,33.10
2023-03-06T19:58:33.325Z,31.00
2023-03-06T20:01:24.473Z,26.40
2023-03-06T20:04:04.311Z,26.80
2023-03-06T20:06:54.952Z,27.80
2023-03-06T20:09:47.521Z,29.40
2023-03-06T20:17:25.079Z,24.10
2023-03-06T20:28:21.899Z,22.10
2023-03-06T20:31:39.599Z,21.00
2023-03-06T20:34:46.650Z,29.70
2023-03-06T20:37:29.855Z,33.30
2023-03-06T20:40:17.876Z,32.50
2023-03-06T20:42:52.920Z,29.90
2023-03-06T20:46:44.070Z,31.40
2023-03-06T20:49:54.310Z,33.10
2023-03-06T21:04:32.897Z,35.80
2023-03-06T21:07:43.982Z,79.60
2023-03-06T21:11:09.221Z,146.80
2023-03-06T21:18:16.703Z,65.90
2023-03-06T21:21:11.111Z,48.30
2023-03-06T21:25:18.286Z,48.90
2023-03-06T21:28:41.190Z,48.60
2023-03-06T21:35:09.036Z,56.10
2023-03-06T21:38:10.858Z,51.70
2023-03-06T21:40:55.010Z,59.90
2023-03-06T21:44:33.756Z,66.30
2023-03-06T21:47:47.414Z,55.50
2023-03-06T21:50:31.569Z,54.10
2023-03-06T21:53:20.286Z,46.00
2023-03-06T21:55:50.505Z,53.60
2023-03-06T21:58:22.623Z,48.30
2023-03-06T22:00:53.040Z,51.30
2023-03-06T22:03:36.260Z,54.90
2023-03-06T22:06:18.827Z,49.00
2023-03-06T22:08:52.324Z,55.30
2023-03-06T22:11:46.508Z,55.70
2023-03-06T22:14:23.112Z,36.50
2023-03-06T22:17:00.959Z,45.40
2023-03-06T22:19:28.552Z,49.90
2023-03-06T22:22:05.330Z,52.70
2023-03-06T22:25:04.995Z,33.20
2023-03-06T22:27:35.273Z,33.90
2023-03-06T22:30:06.728Z,43.60
2023-03-06T22:32:37.742Z,30.30
2023-03-06T22:35:26.958Z,25.10
2023-03-06T22:37:54.161Z,22.80
2023-03-06T22:40:24.471Z,24.40
2023-03-06T22:42:59.253Z,23.50
2023-03-06T22:45:34.743Z,24.80
2023-03-06T22:48:11.186Z,21.50
2023-03-06T22:51:05.034Z,31.00
2023-03-06T22:53:51.031Z,27.70
2023-03-06T22:56:30.162Z,27.70
2023-03-06T22:59:06.814Z,30.10
2023-03-06T23:01:37.051Z,37.90
2023-03-06T23:04:52.542Z,37.20
2023-03-06T23:13:22.188Z,54.20
2023-03-06T23:17:01.787Z,55.90
2023-03-06T23:20:29.670Z,44.90
2023-03-06T23:23:35.521Z,42.50
2023-03-06T23:27:35.591Z,35.20
2023-03-06T23:31:42.270Z,36.00
2023-03-06T23:39:11.690Z,34.90
2023-03-06T23:42:25.315Z,32.30
2023-03-06T23:46:09.277Z,28.10
2023-03-06T23:49:40.446Z,28.10
2023-03-06T23:52:49.322Z,27.20
2023-03-06T23:56:22.365Z,26.90
